createdAt,value
2022-08-01T00:00:11.862Z,98006.97
2022-08-01T00:03:00.021Z,98008.28
2022-08-01T00:05:28.618Z,98008.66
2022-08-01T00:07:56.871Z,98001.50
2022-08-01T00:10:25.357Z,98000.22
2022-08-01T00:12:55.134Z,98004.72
2022-08-01T00:15:23.233Z,97996.88
2022-08-01T00:17:51.441Z,98005.63
2022-08-01T00:20:19.900Z,97997.50
2022-08-01T00:22:48.117Z,97997.81
2022-08-01T00:25:16.243Z,97993.00
2022-08-01T00:27:44.546Z,97995.25
2022-08-01T00:30:15.058Z,97999.91
2022-08-01T00:32:43.984Z,97989.91
2022-08-01T00:35:12.459Z,97990.97
2022-08-01T00:37:40.536Z,97989.41
2022-08-01T00:40:09.767Z,97988.75
2022-08-01T00:42:43.286Z,97998.53
2022-08-01T00:45:12.610Z,97995.66
2022-08-01T00:47:42.733Z,97993.66
2022-08-01T00:50:11.933Z,97992.47
2022-08-01T00:52:41.462Z,97994.94
2022-08-01T00:55:14.924Z,97992.47
2022-08-01T00:58:05.236Z,97995.16
2022-08-01T01:00:34.817Z,97992.75
2022-08-01T01:03:26.447Z,97990.88
2022-08-01T01:06:14.359Z,97997.66
2022-08-01T01:08:46.103Z,97999.22
2022-08-01T01:11:18.015Z,98003.66
2022-08-01T01:13:50.962Z,98007.56
2022-08-01T01:16:20.943Z,98001.72
2022-08-01T01:18:53.347Z,97995.38
2022-08-01T01:21:48.320Z,97995.75
2022-08-01T01:24:36.534Z,97993.94
2022-08-01T01:27:11.006Z,97986.97
2022-08-01T01:30:00.477Z,97988.34
2022-08-01T01:32:35.061Z,97980.66
2022-08-01T01:35:08.920Z,97985.81
2022-08-01T01:37:37.831Z,97987.22
2022-08-01T01:40:08.010Z,97982.22
2022-08-01T01:42:36.822Z,97979.22
2022-08-01T01:45:08.427Z,97982.28
2022-08-01T01:47:36.338Z,97982.88
2022-08-01T01:50:05.957Z,97985.09
2022-08-01T01:52:34.304Z,97983.63
2022-08-01T01:55:03.831Z,97980.03
2022-08-01T01:57:32.495Z,97978.88
2022-08-01T02:00:01.568Z,97977.25
2022-08-01T02:02:31.476Z,97981.34
2022-08-01T02:05:00.513Z,97974.38
2022-08-01T02:07:29.897Z,97977.91
2022-08-01T02:09:58.780Z,97973.84
2022-08-01T02:12:27.049Z,97978.22
2022-08-01T02:14:56.535Z,97973.47
2022-08-01T02:17:26.077Z,97975.44
2022-08-01T02:19:56.107Z,97977.06
2022-08-01T02:22:28.559Z,97970.94
2022-08-01T02:25:01.663Z,97978.63
2022-08-01T02:27:35.082Z,97970.81
2022-08-01T02:30:06.743Z,97966.81
2022-08-01T02:32:39.621Z,97974.38
2022-08-01T02:35:12.233Z,97968.25
2022-08-01T02:37:44.480Z,97975.88
2022-08-01T02:40:15.843Z,97975.38
2022-08-01T02:42:46.309Z,97973.63
2022-08-01T02:45:15.134Z,97970.31
2022-08-01T02:47:45.365Z,97973.50
2022-08-01T02:50:17.756Z,97980.75
2022-08-01T02:52:47.412Z,97977.31
2022-08-01T02:55:16.330Z,97971.53
2022-08-01T02:57:52.555Z,97971.97
2022-08-01T03:00:26.089Z,97984.28
2022-08-01T03:02:56.109Z,97979.72
2022-08-01T03:05:27.069Z,97986.00
2022-08-01T03:08:01.413Z,97982.97
2022-08-01T03:10:33.538Z,97978.88
2022-08-01T03:13:02.705Z,97974.38
2022-08-01T03:15:32.120Z,97979.88
2022-08-01T03:18:02.002Z,97973.19
2022-08-01T03:20:33.325Z,97973.56
2022-08-01T03:23:02.466Z,97981.75
2022-08-01T03:25:31.312Z,97973.94
2022-08-01T03:28:02.049Z,97985.53
2022-08-01T03:30:30.966Z,97984.47
2022-08-01T03:32:59.525Z,97985.16
2022-08-01T03:35:32.614Z,97986.25
2022-08-01T03:38:17.723Z,97989.66
2022-08-01T03:40:49.783Z,97986.19
2022-08-01T03:43:21.613Z,97982.94
2022-08-01T03:45:53.346Z,97987.16
2022-08-01T03:48:21.660Z,97991.09
2022-08-01T03:50:53.804Z,97993.19
2022-08-01T03:53:25.405Z,97991.06
2022-08-01T03:55:53.363Z,97997.16
2022-08-01T03:58:21.959Z,97999.13
2022-08-01T04:00:51.070Z,97996.88
2022-08-01T04:03:19.311Z,98001.91
2022-08-01T04:05:47.505Z,98003.13
2022-08-01T04:08:17.116Z,98003.72
2022-08-01T04:10:45.220Z,98003.88
2022-08-01T04:13:13.883Z,98003.88
2022-08-01T04:15:42.330Z,98007.22
2022-08-01T04:18:11.080Z,97997.09
2022-08-01T04:20:39.117Z,98001.31
2022-08-01T04:23:08.135Z,97997.75
2022-08-01T04:25:40.813Z,97990.19
2022-08-01T04:28:12.172Z,98001.53
2022-08-01T04:30:40.489Z,98001.41
2022-08-01T04:33:10.689Z,98001.66
2022-08-01T04:36:02.162Z,98000.94
2022-08-01T04:38:31.679Z,97997.38
2022-08-01T04:41:08.756Z,98000.63
2022-08-01T04:43:38.352Z,97999.44
2022-08-01T04:46:07.974Z,98000.16
2022-08-01T04:48:39.751Z,98004.03
2022-08-01T04:51:16.364Z,98005.31
2022-08-01T04:53:45.062Z,98004.53
2022-08-01T04:56:15.109Z,98007.19
2022-08-01T04:58:43.705Z,97999.56
2022-08-01T05:01:12.998Z,98001.50
2022-08-01T05:03:41.672Z,98002.19
2022-08-01T05:06:10.225Z,97995.06
2022-08-01T05:08:38.318Z,98008.25
2022-08-01T05:11:06.687Z,98000.41
2022-08-01T05:13:36.921Z,98008.09
2022-08-01T05:16:05.207Z,98007.09
2022-08-01T05:18:33.948Z,98011.19
2022-08-01T05:21:03.365Z,98005.63
2022-08-01T05:23:42.436Z,98006.00
2022-08-01T05:26:14.704Z,98008.47
2022-08-01T05:28:44.703Z,98007.38
2022-08-01T05:31:13.303Z,98000.91
2022-08-01T05:33:41.513Z,98002.44
2022-08-01T05:36:09.823Z,98000.69
2022-08-01T05:38:38.310Z,97996.66
2022-08-01T05:41:06.891Z,97987.81
2022-08-01T05:43:35.026Z,97994.69
2022-08-01T05:46:04.919Z,97991.31
2022-08-01T05:48:33.044Z,97998.13
2022-08-01T05:51:01.122Z,97992.50
2022-08-01T05:53:29.651Z,97994.31
2022-08-01T05:55:57.739Z,97994.06
2022-08-01T05:58:25.853Z,97996.00
2022-08-01T06:00:54.143Z,97993.28
2022-08-01T06:03:23.727Z,97996.69
2022-08-01T06:05:51.822Z,98005.88
2022-08-01T06:08:20.124Z,97997.84
2022-08-01T06:10:48.185Z,98000.97
2022-08-01T06:13:16.550Z,98004.44
2022-08-01T06:15:45.033Z,98011.84
2022-08-01T06:18:13.375Z,98006.13
2022-08-01T06:20:42.880Z,98003.59
2022-08-01T06:23:24.436Z,97999.28
2022-08-01T06:26:00.153Z,98007.94
2022-08-01T06:28:28.784Z,98014.25
2022-08-01T06:30:59.649Z,98014.41
2022-08-01T06:33:28.385Z,98011.13
2022-08-01T06:35:58.341Z,98011.69
2022-08-01T06:38:27.157Z,98007.97
2022-08-01T06:40:55.390Z,98017.19
2022-08-01T06:43:24.891Z,98004.75
2022-08-01T06:45:53.046Z,98004.56
2022-08-01T06:48:21.173Z,98007.97
2022-08-01T06:50:49.584Z,98006.38
2022-08-01T06:53:19.053Z,98012.41
2022-08-01T06:55:47.713Z,98010.78
2022-08-01T06:58:16.194Z,98005.94
2022-08-01T07:00:44.497Z,98009.97
2022-08-01T07:03:12.693Z,98012.78
2022-08-01T07:05:40.965Z,98001.34
2022-08-01T07:08:09.074Z,98015.91
2022-08-01T07:10:38.562Z,98016.50
2022-08-01T07:13:06.966Z,98001.56
2022-08-01T07:15:35.068Z,98004.84
2022-08-01T07:18:04.955Z,97999.38
2022-08-01T07:20:37.975Z,97999.38
2022-08-01T07:23:18.726Z,97997.91
2022-08-01T07:25:55.913Z,98003.16
2022-08-01T07:28:26.404Z,97998.00
2022-08-01T07:30:54.833Z,97996.53
2022-08-01T07:33:23.389Z,97999.72
2022-08-01T07:35:51.908Z,97997.72
2022-08-01T07:38:20.313Z,97991.38
2022-08-01T07:40:48.614Z,97998.06
2022-08-01T07:43:18.111Z,97995.00
2022-08-01T07:45:46.707Z,97985.78
2022-08-01T07:48:17.025Z,97993.09
2022-08-01T07:50:46.479Z,97987.06
2022-08-01T07:53:15.456Z,97987.38
2022-08-01T07:55:43.941Z,97987.16
2022-08-01T07:58:14.462Z,97984.28
2022-08-01T08:00:45.028Z,97986.34
2022-08-01T08:03:13.231Z,97978.97
2022-08-01T08:05:59.010Z,97964.66
2022-08-01T08:08:29.849Z,97973.88
2022-08-01T08:10:58.039Z,97965.44
2022-08-01T08:13:26.285Z,97970.91
2022-08-01T08:15:56.749Z,97974.34
2022-08-01T08:18:26.990Z,97970.56
2022-08-01T08:20:55.776Z,97982.59
2022-08-01T08:23:43.029Z,97977.38
2022-08-01T08:26:12.680Z,97974.59
2022-08-01T08:28:41.033Z,97981.56
2022-08-01T08:31:25.572Z,97980.84
2022-08-01T08:33:59.317Z,97978.78
2022-08-01T08:36:31.241Z,97981.97
2022-08-01T08:39:01.673Z,97981.69
2022-08-01T08:41:37.663Z,97986.75
2022-08-01T08:44:10.198Z,97986.69
2022-08-01T08:46:44.935Z,97985.28
2022-08-01T08:49:15.185Z,97977.69
2022-08-01T08:51:44.323Z,97999.88
2022-08-01T08:54:14.267Z,97985.19
2022-08-01T08:56:42.932Z,97985.66
2022-08-01T08:59:11.074Z,97986.47
2022-08-01T09:01:39.298Z,97988.53
2022-08-01T09:04:09.119Z,97988.75
2022-08-01T09:06:37.312Z,97995.13
2022-08-01T09:09:05.955Z,97999.44
2022-08-01T09:11:34.533Z,98003.28
2022-08-01T09:14:11.715Z,98000.91
2022-08-01T09:16:48.285Z,97993.88
2022-08-01T09:19:39.151Z,98001.44
2022-08-01T09:22:10.686Z,98003.41
2022-08-01T09:24:40.219Z,98006.47
2022-08-01T09:27:21.741Z,98004.94
2022-08-01T09:30:00.791Z,98007.28
2022-08-01T09:32:38.502Z,98005.66
2022-08-01T09:35:31.012Z,98012.06
2022-08-01T09:38:15.585Z,98009.91
2022-08-01T09:40:52.068Z,98009.88
2022-08-01T09:43:20.831Z,98014.66
2022-08-01T09:45:50.850Z,98020.16
2022-08-01T09:48:22.738Z,98019.81
2022-08-01T09:51:04.060Z,98012.44
2022-08-01T09:53:51.125Z,98016.47
2022-08-01T09:56:22.137Z,98020.16
2022-08-01T09:59:02.947Z,98015.69
2022-08-01T10:01:44.616Z,98016.25
2022-08-01T10:04:15.262Z,98018.50
2022-08-01T10:06:46.629Z,98013.75
2022-08-01T10:09:16.215Z,98015.22
2022-08-01T10:11:45.487Z,98006.63
2022-08-01T10:14:17.736Z,98016.53
2022-08-01T10:17:04.934Z,98006.25
2022-08-01T10:19:34.646Z,98010.28
2022-08-01T10:22:07.575Z,98003.59
2022-08-01T10:24:38.870Z,98008.91
2022-08-01T10:27:09.443Z,98013.63
2022-08-01T10:29:59.779Z,98006.56
2022-08-01T10:32:32.743Z,98017.59
2022-08-01T10:35:06.510Z,98012.75
2022-08-01T10:37:51.502Z,98008.00
2022-08-01T10:40:31.245Z,98010.44
2022-08-01T10:43:00.459Z,98001.16
2022-08-01T10:45:30.339Z,98009.22
2022-08-01T10:48:02.418Z,98010.13
2022-08-01T10:50:34.308Z,98009.16
2022-08-01T10:53:16.044Z,97997.72
2022-08-01T10:55:53.004Z,98005.00
2022-08-01T10:58:30.113Z,98007.88
2022-08-01T11:01:23.158Z,98006.91
2022-08-01T11:04:15.504Z,98009.91
2022-08-01T11:06:56.127Z,97997.25
2022-08-01T11:09:36.809Z,98010.44
2022-08-01T11:12:13.641Z,98011.63
2022-08-01T11:15:29.162Z,98017.34
2022-08-01T11:18:01.870Z,98015.34
2022-08-01T11:20:32.668Z,98016.13
2022-08-01T11:23:25.536Z,98011.88
2022-08-01T11:26:28.922Z,98015.22
2022-08-01T11:29:22.118Z,98011.56
2022-08-01T11:31:53.058Z,98019.22
2022-08-01T11:34:21.788Z,98003.28
2022-08-01T11:36:59.435Z,98014.59
2022-08-01T11:39:29.562Z,98011.34
2022-08-01T11:42:20.814Z,98015.06
2022-08-01T11:44:52.495Z,98008.78
2022-08-01T11:47:21.552Z,98010.56
2022-08-01T11:49:56.276Z,98011.22
2022-08-01T11:52:29.499Z,98022.69
2022-08-01T11:54:59.722Z,98012.03
2022-08-01T11:57:34.852Z,98011.66
2022-08-01T12:00:09.025Z,98004.16
2022-08-01T12:02:37.661Z,98001.63
2022-08-01T12:05:12.169Z,97999.03
2022-08-01T12:07:42.284Z,97998.44
2022-08-01T12:10:12.706Z,98000.41
2022-08-01T12:12:46.803Z,97998.38
2022-08-01T12:15:15.543Z,97996.41
2022-08-01T12:17:58.668Z,97987.66
2022-08-01T12:20:31.610Z,97992.38
2022-08-01T12:23:01.529Z,97997.94
2022-08-01T12:25:30.055Z,97989.06
2022-08-01T12:28:02.392Z,97988.53
2022-08-01T12:30:32.893Z,97985.75
2022-08-01T12:33:00.991Z,97989.38
2022-08-01T12:35:30.841Z,97988.38
2022-08-01T12:38:01.473Z,97999.31
2022-08-01T12:40:31.038Z,97990.13
2022-08-01T12:43:03.305Z,97992.50
2022-08-01T12:45:34.401Z,97990.28
2022-08-01T12:48:03.600Z,97982.41
2022-08-01T12:50:32.755Z,97991.28
2022-08-01T12:53:02.202Z,97980.03
2022-08-01T12:55:33.562Z,97986.69
2022-08-01T12:58:15.656Z,97985.47
2022-08-01T13:00:46.375Z,97981.09
2022-08-01T13:03:16.091Z,97975.88
2022-08-01T13:05:46.632Z,97976.44
2022-08-01T13:08:14.989Z,97970.94
2022-08-01T13:10:43.398Z,97972.84
2022-08-01T13:13:22.312Z,97978.25
2022-08-01T13:16:06.326Z,97975.88
2022-08-01T13:18:35.391Z,97974.44
2022-08-01T13:21:11.618Z,97972.84
2022-08-01T13:24:03.424Z,97964.41
2022-08-01T13:26:43.885Z,97966.09
2022-08-01T13:29:15.003Z,97965.41
2022-08-01T13:31:44.330Z,97967.56
2022-08-01T13:34:13.017Z,97977.22
2022-08-01T13:36:48.423Z,97971.50
2022-08-01T13:39:35.291Z,97974.34
2022-08-01T13:42:03.897Z,97972.66
2022-08-01T13:44:34.120Z,97975.22
2022-08-01T13:47:02.372Z,97962.25
2022-08-01T13:49:43.032Z,97978.63
2022-08-01T13:52:11.219Z,97967.50
2022-08-01T13:54:39.618Z,97965.53
2022-08-01T13:57:07.981Z,97959.53
2022-08-01T13:59:37.593Z,97966.81
2022-08-01T14:02:06.128Z,97961.88
2022-08-01T14:04:34.746Z,97965.81
2022-08-01T14:07:09.549Z,97976.22
2022-08-01T14:10:04.758Z,97963.63
2022-08-01T14:12:28.680Z,97965.63
2022-08-01T14:14:58.448Z,97970.78
2022-08-01T14:17:26.813Z,97971.84
2022-08-01T14:19:57.925Z,97966.16
2022-08-01T14:22:26.605Z,97964.97
2022-08-01T14:24:59.505Z,97966.66
2022-08-01T14:27:31.900Z,97970.31
2022-08-01T14:30:03.806Z,97965.22
2022-08-01T14:32:34.363Z,97976.38
2022-08-01T14:35:03.217Z,97974.97
2022-08-01T14:37:35.992Z,97972.50
2022-08-01T14:40:10.528Z,97984.63
2022-08-01T14:42:39.515Z,97989.66
2022-08-01T14:45:11.020Z,97981.03
2022-08-01T14:47:39.237Z,97979.78
2022-08-01T14:50:09.312Z,97987.97
2022-08-01T14:52:38.461Z,97987.31
2022-08-01T14:55:08.933Z,97983.94
2022-08-01T14:57:37.114Z,97991.78
2022-08-01T15:00:08.035Z,97980.00
2022-08-01T15:02:37.486Z,97985.41
2022-08-01T15:05:06.585Z,97985.59
2022-08-01T15:07:37.017Z,97982.06
2022-08-01T15:10:09.070Z,97990.63
2022-08-01T15:12:49.972Z,97990.34
2022-08-01T15:15:18.735Z,97998.72
2022-08-01T15:17:48.461Z,97988.53
2022-08-01T15:20:16.653Z,98000.63
2022-08-01T15:22:45.068Z,97995.16
2022-08-01T15:25:13.537Z,97999.16
2022-08-01T15:27:41.736Z,97999.72
2022-08-01T15:30:10.436Z,98002.66
2022-08-01T15:32:39.374Z,98004.00
2022-08-01T15:35:11.310Z,97999.97
2022-08-01T15:37:43.088Z,98003.19
2022-08-01T15:40:12.655Z,98003.94
2022-08-01T15:42:41.138Z,97998.56
2022-08-01T15:45:20.738Z,97997.59
2022-08-01T15:47:58.796Z,98006.19
2022-08-01T15:50:28.627Z,97998.66
2022-08-01T15:52:56.739Z,97998.22
2022-08-01T15:55:25.401Z,97991.28
2022-08-01T15:57:53.878Z,97996.88
2022-08-01T16:00:22.214Z,97993.03
2022-08-01T16:02:50.642Z,98005.13
2022-08-01T16:05:20.572Z,97991.66
2022-08-01T16:07:59.279Z,97983.97
2022-08-01T16:10:30.779Z,97993.72
2022-08-01T16:12:58.937Z,97996.44
2022-08-01T16:15:36.586Z,97999.28
2022-08-01T16:18:05.843Z,98001.66
2022-08-01T16:20:34.269Z,97993.78
2022-08-01T16:23:04.071Z,97995.06
2022-08-01T16:25:32.324Z,98008.41
2022-08-01T16:28:00.487Z,98004.97
2022-08-01T16:30:29.170Z,98000.72
2022-08-01T16:33:00.630Z,98000.13
2022-08-01T16:35:36.284Z,97998.59
2022-08-01T16:38:07.216Z,98006.94
2022-08-01T16:40:47.434Z,97997.28
2022-08-01T16:43:16.249Z,97999.22
2022-08-01T16:45:44.839Z,97997.38
2022-08-01T16:48:15.477Z,97998.19
2022-08-01T16:50:44.100Z,98010.31
2022-08-01T16:53:14.574Z,98006.41
2022-08-01T16:55:50.446Z,98014.19
2022-08-01T16:58:27.211Z,98006.69
2022-08-01T17:00:57.225Z,98015.44
2022-08-01T17:03:47.173Z,98017.75
2022-08-01T17:06:14.790Z,98013.06
2022-08-01T17:08:47.459Z,98016.16
2022-08-01T17:11:16.498Z,98021.91
2022-08-01T17:13:45.509Z,98031.56
2022-08-01T17:16:14.239Z,98027.75
2022-08-01T17:18:42.624Z,98024.56
2022-08-01T17:21:10.888Z,98027.91
2022-08-01T17:23:39.308Z,98033.94
2022-08-01T17:26:08.926Z,98029.94
2022-08-01T17:28:37.089Z,98027.78
2022-08-01T17:31:09.355Z,98029.56
2022-08-01T17:33:45.551Z,98028.09
2022-08-01T17:36:18.005Z,98022.44
2022-08-01T17:38:46.353Z,98033.53
2022-08-01T17:41:16.248Z,98031.03
2022-08-01T17:43:44.604Z,98031.75
2022-08-01T17:46:12.933Z,98042.81
2022-08-01T17:48:41.111Z,98038.47
2022-08-01T17:51:09.591Z,98039.31
2022-08-01T17:53:37.917Z,98032.00
2022-08-01T17:56:27.303Z,98044.88
2022-08-01T17:58:55.559Z,98046.81
2022-08-01T18:01:26.937Z,98051.75
2022-08-01T18:03:57.697Z,98058.44
2022-08-01T18:06:26.188Z,98059.97
2022-08-01T18:08:56.385Z,98058.84
2022-08-01T18:11:27.126Z,98059.50
2022-08-01T18:13:56.772Z,98060.72
2022-08-01T18:16:26.259Z,98065.31
2022-08-01T18:18:56.027Z,98068.19
2022-08-01T18:21:24.424Z,98069.09
2022-08-01T18:23:52.784Z,98059.47
2022-08-01T18:26:21.618Z,98066.72
2022-08-01T18:28:51.256Z,98066.47
2022-08-01T18:31:20.806Z,98078.38
2022-08-01T18:33:49.469Z,98074.31
2022-08-01T18:36:32.869Z,98075.72
2022-08-01T18:39:04.645Z,98090.28
2022-08-01T18:41:33.914Z,98092.19
2022-08-01T18:44:08.144Z,98098.69
2022-08-01T18:46:38.043Z,98095.69
2022-08-01T18:49:07.930Z,98104.63
2022-08-01T18:51:40.204Z,98105.31
2022-08-01T18:54:12.372Z,98108.09
2022-08-01T18:56:40.510Z,98105.03
2022-08-01T18:59:10.358Z,98103.88
2022-08-01T19:01:39.802Z,98109.50
2022-08-01T19:04:08.473Z,98105.59
2022-08-01T19:06:37.011Z,98114.22
2022-08-01T19:09:05.923Z,98119.91
2022-08-01T19:11:35.113Z,98121.78
2022-08-01T19:14:03.889Z,98132.34
2022-08-01T19:16:34.091Z,98121.38
2022-08-01T19:19:04.653Z,98125.25
2022-08-01T19:21:33.139Z,98117.25
2022-08-01T19:24:22.865Z,98118.19
2022-08-01T19:26:53.819Z,98117.78
2022-08-01T19:29:23.486Z,98127.69
2022-08-01T19:32:06.812Z,98128.31
2022-08-01T19:34:36.797Z,98129.38
2022-08-01T19:37:05.414Z,98128.38
2022-08-01T19:39:33.985Z,98140.41
2022-08-01T19:42:04.274Z,98139.31
2022-08-01T19:44:33.227Z,98141.56
2022-08-01T19:47:02.170Z,98150.09
2022-08-01T19:49:32.114Z,98145.59
2022-08-01T19:52:02.491Z,98151.31
2022-08-01T19:54:35.469Z,98154.38
2022-08-01T19:57:06.068Z,98154.53
2022-08-01T19:59:36.364Z,98154.56
2022-08-01T20:02:05.918Z,98161.13
2022-08-01T20:04:36.003Z,98166.78
2022-08-01T20:07:04.770Z,98154.09
2022-08-01T20:09:34.455Z,98153.28
2022-08-01T20:12:02.839Z,98164.97
2022-08-01T20:14:30.925Z,98162.59
2022-08-01T20:16:59.414Z,98170.66
2022-08-01T20:19:29.527Z,98168.97
2022-08-01T20:22:03.024Z,98177.28
2022-08-01T20:24:39.537Z,98170.78
2022-08-01T20:27:10.387Z,98171.75
2022-08-01T20:29:39.351Z,98173.34
2022-08-01T20:32:07.901Z,98177.41
2022-08-01T20:34:38.372Z,98185.69
2022-08-01T20:37:13.025Z,98172.78
2022-08-01T20:39:44.239Z,98178.91
2022-08-01T20:42:14.406Z,98181.44
2022-08-01T20:44:42.999Z,98175.78
2022-08-01T20:47:11.619Z,98173.06
2022-08-01T20:49:43.416Z,98173.66
2022-08-01T20:52:13.153Z,98167.66
2022-08-01T20:54:42.337Z,98168.13
2022-08-01T20:57:13.676Z,98172.44
2022-08-01T20:59:55.487Z,98163.78
2022-08-01T21:02:35.952Z,98172.63
2022-08-01T21:05:07.477Z,98170.84
2022-08-01T21:07:40.637Z,98177.16
2022-08-01T21:10:10.935Z,98178.47
2022-08-01T21:12:45.054Z,98167.28
2022-08-01T21:15:17.443Z,98180.41
2022-08-01T21:17:48.170Z,98175.63
2022-08-01T21:20:16.885Z,98182.13
2022-08-01T21:22:54.283Z,98186.63
2022-08-01T21:25:25.762Z,98193.66
2022-08-01T21:27:54.350Z,98193.50
2022-08-01T21:30:25.190Z,98195.75
2022-08-01T21:32:53.905Z,98186.72
2022-08-01T21:35:23.601Z,98191.34
2022-08-01T21:37:53.691Z,98187.69
2022-08-01T21:40:24.287Z,98196.19
2022-08-01T21:42:53.667Z,98193.06
2022-08-01T21:45:24.393Z,98199.00
2022-08-01T21:47:53.317Z,98202.28
2022-08-01T21:50:22.268Z,98202.31
2022-08-01T21:53:05.178Z,98200.28
2022-08-01T21:55:38.800Z,98206.91
2022-08-01T21:58:28.918Z,98209.25
2022-08-01T22:01:04.848Z,98212.13
2022-08-01T22:03:38.196Z,98212.13
2022-08-01T22:06:07.326Z,98210.78
2022-08-01T22:08:37.998Z,98200.66
2022-08-01T22:11:09.265Z,98207.03
2022-08-01T22:13:37.933Z,98205.66
2022-08-01T22:16:07.189Z,98200.31
2022-08-01T22:18:37.141Z,98196.59
2022-08-01T22:21:05.817Z,98201.56
2022-08-01T22:23:36.356Z,98191.34
2022-08-01T22:26:08.776Z,98190.97
2022-08-01T22:28:39.239Z,98187.50
2022-08-01T22:31:08.245Z,98190.38
2022-08-01T22:33:37.530Z,98189.56
2022-08-01T22:36:08.052Z,98185.06
2022-08-01T22:38:36.630Z,98192.81
2022-08-01T22:41:06.852Z,98196.81
2022-08-01T22:43:41.279Z,98200.72
2022-08-01T22:46:18.855Z,98204.78
2022-08-01T22:48:51.680Z,98206.41
2022-08-01T22:51:32.196Z,98196.69
2022-08-01T22:54:05.466Z,98203.97
2022-08-01T22:56:34.926Z,98195.22
2022-08-01T22:59:10.209Z,98197.94
2022-08-01T23:01:39.105Z,98194.84
2022-08-01T23:04:08.093Z,98202.13
2022-08-01T23:06:41.004Z,98203.19
2022-08-01T23:09:10.622Z,98213.38
2022-08-01T23:11:39.486Z,98210.97
2022-08-01T23:14:09.768Z,98204.09
2022-08-01T23:16:38.167Z,98204.22
2022-08-01T23:19:06.488Z,98200.59
2022-08-01T23:21:38.740Z,98204.97
2022-08-01T23:24:10.594Z,98212.25
2022-08-01T23:26:39.422Z,98212.22
2022-08-01T23:29:10.011Z,98206.59
2022-08-01T23:32:00.241Z,98209.81
2022-08-01T23:34:26.540Z,98217.06
2022-08-01T23:36:54.924Z,98220.25
2022-08-01T23:39:23.146Z,98217.03
2022-08-01T23:41:57.785Z,98213.00
2022-08-01T23:44:28.451Z,98208.59
2022-08-01T23:46:56.534Z,98212.97
2022-08-01T23:49:24.934Z,98212.97
2022-08-01T23:51:53.730Z,98204.16
2022-08-01T23:54:21.951Z,98204.50
2022-08-01T23:56:51.951Z,98199.28
2022-08-01T23:59:21.316Z,98208.09
